Airport View

Enter AWOS ICAO identifier for current METAR.

ex. KFNL

KFBG 080456Z AUTO 29003KT 10SM FEW120 23/23 A3011 RMK AO2 RAE27 SLP197 P0002 T02280228 403250227 $

8 Aug 2020 05:16

Other Area AWOS: KPOB - KFAY - KHRJ - KSOP

TAF AMD KFBG 071900Z 0719/0823 26009KT 9000 -SHRA VCTS SCT015 BKN025CB BKN080 QNH3004INS TEMPO 0719/0800 23010G15KT 8000 -TSRA BKN020CB BKN060 TEMPO 0800/0804 23015G35KT 2400 TSRAGR FEW002 BKN010CB BKN025 OVC080 BECMG 0804/0805 23006KT 9999 NSW SCT030 BKN050 QNH2996INS BECMG 0812/0813 VRB03KT 4800 BR OVC002 QNH3000INS BECMG 0814/0815 27006KT 9999 NSW FEW010 SCT050 QNH3002INS BECMG 0818/0819 19009KT 8000 -SHRA VCTS BKN045CB QNH3000INS TX33/0719Z TN22/0810Z